createdAt,value
2022-11-04T00:01:55.539Z,11.38
2022-11-04T00:04:24.216Z,11.33
2022-11-04T00:06:51.003Z,11.32
2022-11-04T00:09:21.140Z,11.15
2022-11-04T00:12:07.234Z,11.16
2022-11-04T00:14:34.578Z,11.13
2022-11-04T00:17:19.496Z,10.94
2022-11-04T00:20:05.920Z,11.13
2022-11-04T00:22:50.665Z,11.09
2022-11-04T00:25:35.469Z,11.05
2022-11-04T00:28:33.022Z,10.99
2022-11-04T00:31:19.962Z,11.02
2022-11-04T00:33:47.313Z,10.93
2022-11-04T00:36:13.652Z,10.90
2022-11-04T00:38:39.998Z,10.90
2022-11-04T00:41:25.780Z,10.83
2022-11-04T00:44:04.992Z,10.88
2022-11-04T00:46:33.361Z,11.01
2022-11-04T00:48:59.947Z,10.90
2022-11-04T00:51:26.594Z,11.04
2022-11-04T00:53:53.743Z,11.12
2022-11-04T00:56:20.132Z,11.13
2022-11-04T00:58:46.755Z,11.10
2022-11-04T01:01:18.833Z,11.22
2022-11-04T01:03:50.141Z,11.31
2022-11-04T01:06:17.771Z,11.33
2022-11-04T01:08:44.439Z,11.17
2022-11-04T01:11:11.356Z,11.24
2022-11-04T01:13:39.006Z,11.15
2022-11-04T01:16:08.764Z,11.08
2022-11-04T01:18:35.646Z,11.11
2022-11-04T01:21:03.650Z,11.04
2022-11-04T01:23:30.373Z,11.08
2022-11-04T01:25:56.753Z,11.09
2022-11-04T01:28:23.204Z,11.06
2022-11-04T01:30:49.662Z,11.02
2022-11-04T01:33:16.096Z,10.94
2022-11-04T01:35:42.474Z,11.03
2022-11-04T01:38:09.201Z,10.98
2022-11-04T01:40:37.178Z,10.97
2022-11-04T01:43:03.650Z,11.10
2022-11-04T01:45:30.143Z,11.13
2022-11-04T01:48:06.207Z,11.04
2022-11-04T01:50:34.890Z,11.13
2022-11-04T01:53:09.865Z,11.01
2022-11-04T01:55:43.216Z,10.99
2022-11-04T01:58:15.666Z,10.97
2022-11-04T02:00:43.303Z,11.03
2022-11-04T02:03:15.922Z,10.98
2022-11-04T02:05:42.746Z,10.91
2022-11-04T02:08:11.170Z,10.90
2022-11-04T02:10:41.090Z,11.00
2022-11-04T02:13:08.526Z,10.95
2022-11-04T02:16:10.533Z,10.98
2022-11-04T02:19:14.463Z,10.95
2022-11-04T02:21:46.777Z,10.98
2022-11-04T02:24:31.432Z,10.86
2022-11-04T02:27:16.660Z,10.86
2022-11-04T02:30:02.786Z,10.74
2022-11-04T02:32:48.111Z,10.63
2022-11-04T02:35:20.540Z,10.63
2022-11-04T02:37:56.430Z,10.63
2022-11-04T02:40:25.963Z,10.68
2022-11-04T02:42:58.906Z,10.61
2022-11-04T02:45:47.209Z,10.62
2022-11-04T02:48:33.851Z,10.54
2022-11-04T02:51:17.722Z,10.46
2022-11-04T02:53:57.310Z,10.47
2022-11-04T02:56:26.121Z,10.37
2022-11-04T02:58:59.446Z,10.33
2022-11-04T03:01:32.465Z,10.43
2022-11-04T03:04:06.391Z,10.28
2022-11-04T03:06:34.399Z,10.20
2022-11-04T03:09:02.571Z,10.37
2022-11-04T03:11:30.353Z,10.32
2022-11-04T03:13:59.991Z,10.44
2022-11-04T03:16:44.726Z,10.19
2022-11-04T03:19:40.244Z,10.31
2022-11-04T03:22:12.442Z,10.27
2022-11-04T03:24:39.523Z,10.25
2022-11-04T03:27:14.741Z,10.41
2022-11-04T03:30:09.633Z,10.23
2022-11-04T03:32:45.260Z,10.23
2022-11-04T03:35:14.385Z,10.10
2022-11-04T03:37:40.796Z,10.02
2022-11-04T03:40:08.310Z,10.03
2022-11-04T03:42:46.413Z,9.93
2022-11-04T03:45:14.233Z,10.07
2022-11-04T03:47:41.196Z,9.89
2022-11-04T03:50:32.341Z,9.97
2022-11-04T03:52:59.171Z,9.90
2022-11-04T03:55:35.536Z,9.82
2022-11-04T03:58:08.308Z,9.86
2022-11-04T04:00:45.372Z,9.79
2022-11-04T04:03:21.044Z,9.80
2022-11-04T04:06:18.706Z,9.57
2022-11-04T04:08:45.028Z,9.51
2022-11-04T04:11:20.608Z,9.58
2022-11-04T04:13:55.254Z,9.36
2022-11-04T04:16:32.477Z,9.39
2022-11-04T04:19:07.880Z,9.56
2022-11-04T04:21:46.959Z,9.51
2022-11-04T04:24:36.184Z,9.45
2022-11-04T04:27:22.012Z,9.28
2022-11-04T04:29:50.314Z,9.36
2022-11-04T04:32:18.054Z,9.38
2022-11-04T04:34:44.504Z,9.21
2022-11-04T04:37:22.916Z,9.18
2022-11-04T04:40:32.404Z,9.50
2022-11-04T04:43:17.224Z,9.59
2022-11-04T04:45:50.892Z,9.58
2022-11-04T04:48:17.630Z,9.67
2022-11-04T04:50:48.727Z,9.42
2022-11-04T04:53:15.587Z,9.62
2022-11-04T04:55:42.106Z,9.52
2022-11-04T04:58:09.110Z,9.56
2022-11-04T05:00:35.598Z,9.60
2022-11-04T05:03:01.977Z,9.68
2022-11-04T05:05:28.476Z,9.50
2022-11-04T05:07:54.897Z,9.52
2022-11-04T05:10:21.329Z,9.37
2022-11-04T05:13:06.359Z,9.49
2022-11-04T05:15:32.777Z,9.49
2022-11-04T05:18:01.139Z,9.65
2022-11-04T05:20:28.984Z,9.57
2022-11-04T05:22:55.423Z,9.51
2022-11-04T05:25:21.839Z,9.34
2022-11-04T05:27:48.283Z,9.39
2022-11-04T05:30:14.744Z,9.44
2022-11-04T05:32:41.127Z,9.40
2022-11-04T05:35:07.745Z,9.46
2022-11-04T05:37:34.109Z,9.48
2022-11-04T05:40:00.528Z,9.49
2022-11-04T05:42:27.121Z,9.40
2022-11-04T05:44:53.515Z,9.19
2022-11-04T05:47:19.861Z,9.41
2022-11-04T05:49:46.310Z,9.30
2022-11-04T05:52:12.706Z,9.44
2022-11-04T05:54:39.367Z,9.31
2022-11-04T05:57:05.773Z,9.32
2022-11-04T05:59:32.147Z,9.25
2022-11-04T06:01:58.639Z,9.15
2022-11-04T06:04:25.281Z,9.26
2022-11-04T06:06:51.850Z,9.12
2022-11-04T06:09:18.242Z,9.12
2022-11-04T06:11:45.307Z,9.05
2022-11-04T06:14:17.535Z,9.25
2022-11-04T06:16:45.030Z,9.12
2022-11-04T06:19:15.955Z,9.09
2022-11-04T06:21:42.650Z,9.13
2022-11-04T06:24:08.999Z,9.13
2022-11-04T06:26:35.357Z,9.15
2022-11-04T06:29:01.805Z,9.16
2022-11-04T06:31:28.223Z,9.25
2022-11-04T06:33:54.604Z,9.32
2022-11-04T06:36:21.003Z,9.33
2022-11-04T06:38:47.526Z,9.35
2022-11-04T06:41:16.058Z,9.51
2022-11-04T06:43:42.821Z,9.38
2022-11-04T06:46:28.065Z,9.46
2022-11-04T06:48:56.014Z,9.45
2022-11-04T06:51:23.363Z,9.51
2022-11-04T06:53:49.782Z,9.50
2022-11-04T06:56:16.332Z,9.59
2022-11-04T06:58:42.832Z,9.41
2022-11-04T07:01:15.895Z,9.52
2022-11-04T07:03:49.450Z,9.59
2022-11-04T07:06:15.815Z,9.62
2022-11-04T07:08:42.509Z,9.57
2022-11-04T07:11:08.853Z,9.64
2022-11-04T07:13:35.295Z,9.58
2022-11-04T07:16:05.129Z,9.58
2022-11-04T07:18:31.512Z,9.67
2022-11-04T07:20:58.930Z,9.69
2022-11-04T07:23:25.353Z,9.72
2022-11-04T07:25:51.832Z,9.67
2022-11-04T07:28:18.247Z,9.61
2022-11-04T07:30:44.587Z,9.75
2022-11-04T07:33:11.031Z,9.74
2022-11-04T07:35:37.592Z,9.74
2022-11-04T07:38:04.095Z,9.78
2022-11-04T07:40:34.303Z,9.82
2022-11-04T07:43:01.420Z,9.92
2022-11-04T07:45:27.815Z,9.96
2022-11-04T07:47:54.169Z,9.99
2022-11-04T07:50:20.750Z,10.03
2022-11-04T07:52:47.255Z,10.07
2022-11-04T07:55:18.474Z,10.11
2022-11-04T07:57:48.082Z,10.08
2022-11-04T08:00:16.386Z,10.12
2022-11-04T08:02:46.875Z,10.13
2022-11-04T08:05:16.549Z,10.18
2022-11-04T08:07:43.717Z,10.25
2022-11-04T08:10:10.378Z,10.26
2022-11-04T08:12:38.087Z,10.30
2022-11-04T08:15:05.276Z,10.30
2022-11-04T08:17:31.699Z,10.31
2022-11-04T08:19:58.077Z,10.32
2022-11-04T08:22:27.643Z,10.32
2022-11-04T08:24:58.153Z,10.20
2022-11-04T08:27:24.565Z,10.23
2022-11-04T08:29:51.449Z,10.33
2022-11-04T08:32:18.892Z,10.42
2022-11-04T08:34:45.418Z,10.33
2022-11-04T08:37:16.252Z,10.38
2022-11-04T08:39:44.109Z,10.41
2022-11-04T08:42:10.748Z,10.45
2022-11-04T08:44:39.465Z,10.50
2022-11-04T08:47:05.884Z,10.55
2022-11-04T08:49:32.261Z,10.53
2022-11-04T08:52:00.573Z,10.56
2022-11-04T08:54:27.618Z,10.54
2022-11-04T08:56:54.460Z,10.53
2022-11-04T08:59:20.874Z,10.62
2022-11-04T09:01:48.645Z,10.59
2022-11-04T09:04:15.178Z,10.61
2022-11-04T09:06:44.816Z,10.70
2022-11-04T09:09:13.895Z,10.86
2022-11-04T09:11:42.718Z,10.90
2022-11-04T09:14:10.034Z,10.90
2022-11-04T09:16:37.945Z,10.93
2022-11-04T09:19:05.073Z,11.01
2022-11-04T09:21:31.706Z,11.09
2022-11-04T09:23:58.070Z,11.17
2022-11-04T09:26:25.754Z,11.19
2022-11-04T09:28:56.487Z,11.06
2022-11-04T09:31:24.127Z,11.10
2022-11-04T09:33:50.889Z,11.16
2022-11-04T09:36:17.825Z,11.18
2022-11-04T09:38:45.053Z,11.27
2022-11-04T09:41:20.459Z,11.36
2022-11-04T09:44:23.989Z,11.38
2022-11-04T09:46:54.945Z,11.41
2022-11-04T09:49:22.289Z,11.40
2022-11-04T09:51:55.232Z,11.38
2022-11-04T09:54:26.834Z,11.44
2022-11-04T09:56:57.598Z,11.48
2022-11-04T09:59:33.854Z,11.53
2022-11-04T10:02:29.627Z,11.54
2022-11-04T10:05:07.378Z,11.65
2022-11-04T10:07:39.781Z,11.63
2022-11-04T10:10:13.809Z,11.66
2022-11-04T10:12:52.068Z,11.72
2022-11-04T10:15:33.733Z,11.75
2022-11-04T10:18:25.917Z,11.76
2022-11-04T10:21:13.463Z,11.81
2022-11-04T10:23:45.697Z,11.82
2022-11-04T10:26:28.905Z,11.86
2022-11-04T10:29:17.561Z,11.87
2022-11-04T10:31:46.473Z,11.79
2022-11-04T10:34:32.763Z,11.92
2022-11-04T10:36:59.166Z,12.02
2022-11-04T10:39:39.143Z,12.02
2022-11-04T10:42:05.884Z,12.05
2022-11-04T10:44:36.624Z,12.03
2022-11-04T10:47:02.997Z,12.13
2022-11-04T10:50:06.776Z,12.14
2022-11-04T10:52:35.552Z,12.18
2022-11-04T10:55:01.993Z,12.19
2022-11-04T10:57:28.413Z,12.20
2022-11-04T11:00:03.320Z,12.29
2022-11-04T11:02:41.549Z,12.50
2022-11-04T11:05:20.174Z,12.43
2022-11-04T11:07:49.449Z,12.38
2022-11-04T11:10:27.956Z,12.44
2022-11-04T11:12:57.958Z,12.38
2022-11-04T11:15:24.852Z,12.48
2022-11-04T11:17:59.459Z,12.46
2022-11-04T11:20:27.182Z,12.50
2022-11-04T11:22:54.768Z,12.51
2022-11-04T11:25:23.209Z,12.56
2022-11-04T11:27:55.915Z,12.60
2022-11-04T11:30:32.681Z,12.50
2022-11-04T11:33:03.858Z,12.59
2022-11-04T11:35:41.321Z,12.73
2022-11-04T11:38:24.088Z,12.63
2022-11-04T11:41:23.407Z,12.66
2022-11-04T11:43:50.042Z,12.67
2022-11-04T11:46:23.134Z,12.75
2022-11-04T11:48:55.297Z,12.68
2022-11-04T11:51:37.400Z,12.79
2022-11-04T11:54:19.076Z,12.80
2022-11-04T11:57:13.077Z,12.76
2022-11-04T12:02:54.762Z,12.83
2022-11-04T12:11:51.697Z,12.98
2022-11-04T12:14:23.158Z,12.89
2022-11-04T12:17:04.801Z,12.93
2022-11-04T12:19:55.531Z,13.00
2022-11-04T12:22:37.072Z,12.94
2022-11-04T12:25:40.258Z,12.93
2022-11-04T12:28:28.698Z,12.88
2022-11-04T12:31:01.034Z,12.89
2022-11-04T12:33:39.171Z,13.02
2022-11-04T12:37:04.441Z,12.97
2022-11-04T12:39:48.847Z,13.06
2022-11-04T12:42:31.303Z,13.04
2022-11-04T12:44:59.195Z,13.07
2022-11-04T12:47:38.619Z,13.11
2022-11-04T12:50:34.742Z,13.15
2022-11-04T12:53:10.204Z,13.12
2022-11-04T12:55:58.019Z,13.25
2022-11-04T12:58:43.204Z,13.23
2022-11-04T13:01:23.439Z,13.09
2022-11-04T13:03:59.235Z,13.14
2022-11-04T13:06:34.141Z,13.14
2022-11-04T13:09:08.181Z,13.28
2022-11-04T13:11:43.327Z,13.26
2022-11-04T13:14:18.967Z,13.26
2022-11-04T13:16:49.853Z,13.29
2022-11-04T13:19:34.719Z,13.20
2022-11-04T13:22:07.138Z,13.20
2022-11-04T13:24:38.183Z,13.25
2022-11-04T13:27:17.751Z,13.30
2022-11-04T13:29:44.576Z,13.32
2022-11-04T13:32:37.291Z,13.27
2022-11-04T13:35:43.873Z,13.45
2022-11-04T13:38:20.143Z,13.36
2022-11-04T13:41:10.328Z,13.41
2022-11-04T13:43:41.834Z,13.33
2022-11-04T13:46:08.507Z,13.35
2022-11-04T13:48:40.211Z,13.27
2022-11-04T13:51:09.625Z,13.23
2022-11-04T13:53:44.104Z,13.17
2022-11-04T13:56:35.202Z,13.18
2022-11-04T13:59:27.174Z,13.13
2022-11-04T14:02:38.664Z,13.19
2022-11-04T14:05:23.569Z,13.26
2022-11-04T14:08:14.949Z,13.21
2022-11-04T14:10:50.790Z,13.28
2022-11-04T14:13:26.125Z,13.23
2022-11-04T14:16:24.908Z,13.33
2022-11-04T14:18:53.651Z,13.28
2022-11-04T14:21:27.514Z,13.25
2022-11-04T14:24:02.381Z,13.20
2022-11-04T14:26:40.505Z,13.15
2022-11-04T14:29:15.750Z,13.21
2022-11-04T14:31:55.284Z,13.17
2022-11-04T14:34:33.326Z,13.24
2022-11-04T14:37:01.946Z,13.38
2022-11-04T14:39:31.728Z,13.29
2022-11-04T14:42:03.399Z,13.20
2022-11-04T14:44:42.377Z,13.17
2022-11-04T14:47:29.874Z,13.07
2022-11-04T14:49:56.238Z,13.00
2022-11-04T14:52:27.059Z,12.94
2022-11-04T14:55:06.944Z,12.80
2022-11-04T14:57:54.100Z,12.70
2022-11-04T15:00:27.887Z,12.71
2022-11-04T15:03:00.449Z,12.75
2022-11-04T15:05:29.590Z,12.53
2022-11-04T15:07:55.936Z,12.65
2022-11-04T15:10:24.680Z,12.62
2022-11-04T15:13:00.939Z,12.52
2022-11-04T15:15:36.441Z,12.44
2022-11-04T15:18:36.044Z,12.36
2022-11-04T15:21:04.496Z,12.26
2022-11-04T15:23:33.336Z,12.18
2022-11-04T15:26:00.332Z,12.29
2022-11-04T15:28:47.742Z,12.17
2022-11-04T15:31:17.135Z,12.12
2022-11-04T15:33:50.576Z,11.92
2022-11-04T15:36:23.394Z,11.85
2022-11-04T15:38:55.848Z,11.81
2022-11-04T15:41:42.780Z,11.79
2022-11-04T15:44:24.222Z,11.61
2022-11-04T15:46:56.194Z,11.53
2022-11-04T15:49:31.835Z,11.52
2022-11-04T15:52:01.543Z,11.48
2022-11-04T15:54:43.871Z,11.47
2022-11-04T15:57:24.063Z,11.30
2022-11-04T15:59:59.306Z,11.49
2022-11-04T16:02:35.224Z,11.56
2022-11-04T16:05:28.619Z,11.56
2022-11-04T16:08:13.257Z,11.34
2022-11-04T16:10:39.842Z,11.25
2022-11-04T16:13:22.823Z,11.17
2022-11-04T16:16:11.282Z,11.12
2022-11-04T16:18:50.780Z,11.13
2022-11-04T16:21:32.563Z,11.14
2022-11-04T16:24:03.777Z,11.06
2022-11-04T16:26:37.449Z,10.99
2022-11-04T16:29:09.048Z,10.96
2022-11-04T16:31:37.155Z,11.01
2022-11-04T16:34:03.871Z,10.99
2022-11-04T16:36:35.322Z,10.97
2022-11-04T16:39:04.576Z,10.90
2022-11-04T16:41:35.959Z,10.86
2022-11-04T16:44:04.465Z,10.69
2022-11-04T16:46:33.570Z,10.66
2022-11-04T16:49:00.233Z,10.79
2022-11-04T16:51:26.617Z,10.68
2022-11-04T16:53:54.197Z,10.58
2022-11-04T16:56:25.238Z,10.36
2022-11-04T16:58:52.527Z,10.43
2022-11-04T17:01:19.456Z,10.63
2022-11-04T17:03:46.080Z,10.56
2022-11-04T17:06:14.276Z,10.68
2022-11-04T17:08:41.993Z,10.77
2022-11-04T17:11:10.078Z,11.00
2022-11-04T17:13:37.168Z,10.98
2022-11-04T17:16:05.253Z,11.05
2022-11-04T17:18:33.275Z,11.08
2022-11-04T17:21:02.472Z,11.14
2022-11-04T17:23:28.957Z,11.26
2022-11-04T17:25:55.403Z,11.12
2022-11-04T17:28:21.933Z,11.15
2022-11-04T17:30:48.326Z,11.06
2022-11-04T17:33:19.374Z,11.07
2022-11-04T17:35:50.413Z,10.98
2022-11-04T17:38:18.318Z,10.99
2022-11-04T17:41:03.612Z,11.13
2022-11-04T17:43:48.588Z,11.29
2022-11-04T17:46:34.224Z,11.31
2022-11-04T17:49:21.505Z,11.26
2022-11-04T17:51:53.578Z,11.15
2022-11-04T17:54:24.904Z,11.18
2022-11-04T17:56:51.298Z,11.28
2022-11-04T17:59:18.928Z,11.25
2022-11-04T18:01:46.209Z,11.41
2022-11-04T18:04:18.058Z,11.38
2022-11-04T18:06:44.817Z,11.46
2022-11-04T18:09:12.500Z,11.50
2022-11-04T18:11:57.562Z,11.43
2022-11-04T18:14:24.017Z,11.52
2022-11-04T18:16:50.773Z,11.42
2022-11-04T18:19:19.417Z,11.50
2022-11-04T18:21:47.345Z,11.51
2022-11-04T18:24:13.954Z,11.58
2022-11-04T18:26:40.832Z,11.48
2022-11-04T18:29:07.561Z,11.35
2022-11-04T18:31:36.544Z,11.56
2022-11-04T18:34:07.446Z,11.61
2022-11-04T18:36:34.494Z,11.59
2022-11-04T18:39:01.503Z,11.49
2022-11-04T18:41:28.142Z,11.55
2022-11-04T18:43:54.536Z,11.65
2022-11-04T18:46:20.913Z,11.59
2022-11-04T18:48:50.249Z,11.62
2022-11-04T18:51:19.173Z,11.56
2022-11-04T18:53:46.255Z,11.58
2022-11-04T18:56:15.191Z,11.41
2022-11-04T18:58:42.136Z,11.36
2022-11-04T19:01:12.142Z,11.32
2022-11-04T19:03:39.303Z,11.34
2022-11-04T19:06:10.886Z,11.40
2022-11-04T19:08:42.272Z,11.41
2022-11-04T19:11:13.329Z,11.45
2022-11-04T19:13:39.966Z,11.30
2022-11-04T19:16:09.047Z,11.35
2022-11-04T19:18:35.624Z,11.51
2022-11-04T19:21:11.892Z,11.40
2022-11-04T19:23:39.201Z,11.27
2022-11-04T19:26:12.021Z,11.31
2022-11-04T19:28:47.684Z,11.24
2022-11-04T19:31:17.751Z,11.24
2022-11-04T19:33:44.275Z,11.23
2022-11-04T19:36:12.407Z,11.15
2022-11-04T19:38:39.423Z,11.42
2022-11-04T19:41:08.100Z,11.42
2022-11-04T19:43:35.075Z,11.41
2022-11-04T19:46:04.436Z,11.43
2022-11-04T19:48:31.293Z,11.05
2022-11-04T19:50:57.783Z,10.85
2022-11-04T19:53:24.192Z,11.15
2022-11-04T19:55:55.476Z,11.08
2022-11-04T19:58:23.085Z,11.19
2022-11-04T20:00:51.035Z,11.10
2022-11-04T20:03:17.567Z,10.94
2022-11-04T20:05:44.984Z,10.90
2022-11-04T20:08:11.772Z,11.00
2022-11-04T20:10:41.466Z,10.87
2022-11-04T20:13:33.451Z,10.91
2022-11-04T20:16:01.192Z,10.97
2022-11-04T20:18:27.548Z,10.98
2022-11-04T20:20:54.078Z,11.03
2022-11-04T20:23:20.494Z,10.90
2022-11-04T20:25:46.983Z,11.08
2022-11-04T20:28:13.592Z,11.12
2022-11-04T20:30:41.205Z,11.17
2022-11-04T20:33:07.781Z,11.30
2022-11-04T20:35:34.846Z,11.48
2022-11-04T20:38:01.407Z,11.43
2022-11-04T20:40:28.042Z,11.36
2022-11-04T20:42:54.512Z,11.54
2022-11-04T20:45:21.223Z,11.50
2022-11-04T20:47:48.092Z,11.51
2022-11-04T20:50:14.518Z,11.59
2022-11-04T20:52:41.114Z,11.70
2022-11-04T20:55:08.127Z,11.68
2022-11-04T20:57:35.021Z,11.78
2022-11-04T21:00:01.640Z,11.67
2022-11-04T21:02:28.242Z,11.69
2022-11-04T21:04:54.765Z,11.72
2022-11-04T21:07:21.223Z,11.66
2022-11-04T21:09:50.931Z,11.75
2022-11-04T21:12:19.075Z,11.80
2022-11-04T21:14:45.475Z,11.82
2022-11-04T21:17:13.127Z,11.81
2022-11-04T21:19:39.568Z,11.81
2022-11-04T21:22:05.920Z,11.86
2022-11-04T21:24:37.897Z,11.86
2022-11-04T21:27:05.396Z,11.81
2022-11-04T21:29:31.942Z,11.80
2022-11-04T21:31:58.402Z,11.76
2022-11-04T21:34:24.819Z,11.69
2022-11-04T21:36:52.214Z,11.74
2022-11-04T21:39:18.947Z,11.77
2022-11-04T21:41:45.306Z,11.86
2022-11-04T21:44:13.442Z,11.77
2022-11-04T21:46:40.073Z,11.81
2022-11-04T21:49:06.721Z,11.84
2022-11-04T21:51:34.184Z,11.80
2022-11-04T21:54:00.600Z,11.80
2022-11-04T21:56:29.289Z,11.72
2022-11-04T21:58:56.097Z,11.76
2022-11-04T22:01:25.816Z,11.72
2022-11-04T22:03:54.504Z,11.74
2022-11-04T22:06:21.301Z,11.69
2022-11-04T22:08:53.563Z,11.76
2022-11-04T22:11:26.486Z,11.62
2022-11-04T22:14:04.709Z,11.59
2022-11-04T22:16:33.838Z,11.55
2022-11-04T22:19:02.952Z,11.54
2022-11-04T22:21:30.652Z,11.50
2022-11-04T22:23:57.888Z,11.43
2022-11-04T22:26:27.193Z,11.36
2022-11-04T22:28:54.625Z,11.36
2022-11-04T22:31:30.715Z,11.17
2022-11-04T22:33:57.482Z,11.35
2022-11-04T22:36:24.347Z,11.30
2022-11-04T22:38:50.801Z,11.26
2022-11-04T22:41:20.985Z,11.15
2022-11-04T22:43:47.623Z,11.36
2022-11-04T22:46:24.070Z,11.34
2022-11-04T22:48:50.603Z,11.28
2022-11-04T22:51:17.299Z,11.37
2022-11-04T22:53:44.629Z,11.31
2022-11-04T22:56:13.406Z,11.25
2022-11-04T22:58:40.441Z,10.90
2022-11-04T23:01:10.516Z,10.85
2022-11-04T23:03:37.513Z,10.82
2022-11-04T23:06:06.121Z,10.97
2022-11-04T23:08:34.552Z,10.85
2022-11-04T23:11:33.599Z,10.76
2022-11-04T23:14:20.807Z,10.82
2022-11-04T23:17:08.589Z,10.99
2022-11-04T23:19:35.805Z,11.12
2022-11-04T23:22:20.725Z,11.17
2022-11-04T23:25:05.519Z,11.25
2022-11-04T23:27:55.988Z,11.14
2022-11-04T23:30:25.415Z,11.10
2022-11-04T23:32:57.428Z,11.05
2022-11-04T23:35:50.229Z,10.92
2022-11-04T23:38:17.039Z,10.88
2022-11-04T23:41:03.748Z,10.76
2022-11-04T23:43:30.632Z,10.80
2022-11-04T23:46:15.736Z,10.89
2022-11-04T23:49:00.548Z,10.78
2022-11-04T23:51:45.628Z,10.79
2022-11-04T23:54:30.569Z,10.43
2022-11-04T23:57:15.327Z,10.77
